createdAt,value
2023-04-13T00:02:25.566Z,82.20
2023-04-13T00:04:58.016Z,82.40
2023-04-13T00:07:29.181Z,82.10
2023-04-13T00:10:01.552Z,82.30
2023-04-13T00:12:32.589Z,82.40
2023-04-13T00:15:03.606Z,82.60
2023-04-13T00:17:34.705Z,83.30
2023-04-13T00:20:07.034Z,82.50
2023-04-13T00:22:39.136Z,82.30
2023-04-13T00:25:12.692Z,82.00
2023-04-13T00:27:45.201Z,82.10
2023-04-13T00:30:17.740Z,82.00
2023-04-13T00:32:49.406Z,81.90
2023-04-13T00:35:23.472Z,81.70
2023-04-13T00:37:54.825Z,81.80
2023-04-13T00:40:25.824Z,81.50
2023-04-13T00:42:56.795Z,81.50
2023-04-13T00:45:28.118Z,81.40
2023-04-13T00:47:59.181Z,81.50
2023-04-13T00:50:30.232Z,81.10
2023-04-13T00:53:01.160Z,80.80
2023-04-13T00:55:32.135Z,80.80
2023-04-13T00:58:03.100Z,80.80
2023-04-13T01:00:34.095Z,80.40
2023-04-13T01:03:05.225Z,80.00
2023-04-13T01:05:38.806Z,79.70
2023-04-13T01:08:12.120Z,80.20
2023-04-13T01:11:08.557Z,79.30
2023-04-13T01:13:52.443Z,79.00
2023-04-13T01:16:25.858Z,78.30
2023-04-13T01:18:58.506Z,78.10
2023-04-13T01:21:32.045Z,77.80
2023-04-13T01:24:31.073Z,77.40
2023-04-13T01:27:16.796Z,77.50
2023-04-13T01:29:49.486Z,77.20
2023-04-13T01:32:21.249Z,76.70
2023-04-13T01:34:52.292Z,76.00
2023-04-13T01:37:23.742Z,75.20
2023-04-13T01:39:54.767Z,74.70
2023-04-13T01:42:26.363Z,73.70
2023-04-13T01:45:02.957Z,73.40
2023-04-13T01:47:35.480Z,73.00
2023-04-13T01:50:09.280Z,73.10
2023-04-13T01:52:42.203Z,73.00
2023-04-13T01:55:14.732Z,73.00
2023-04-13T01:57:49.300Z,72.60
2023-04-13T02:00:22.162Z,72.10
2023-04-13T02:02:54.779Z,71.90
2023-04-13T02:05:25.853Z,71.60
2023-04-13T02:07:56.815Z,70.60
2023-04-13T02:10:27.885Z,70.20
2023-04-13T02:12:58.959Z,69.70
2023-04-13T02:15:29.912Z,69.70
2023-04-13T02:18:01.033Z,68.20
2023-04-13T02:20:33.397Z,68.50
2023-04-13T02:23:04.403Z,67.20
2023-04-13T02:25:35.371Z,67.70
2023-04-13T02:28:06.991Z,66.90
2023-04-13T02:30:38.942Z,67.10
2023-04-13T02:33:10.715Z,66.30
2023-04-13T02:35:41.692Z,65.60
2023-04-13T02:38:12.711Z,65.30
2023-04-13T02:40:44.247Z,64.60
2023-04-13T02:43:15.218Z,63.50
2023-04-13T02:45:46.213Z,63.90
2023-04-13T02:48:17.556Z,63.90
2023-04-13T02:50:48.573Z,62.40
2023-04-13T02:53:20.340Z,61.70
2023-04-13T02:55:55.193Z,61.10
2023-04-13T02:58:26.487Z,61.80
2023-04-13T03:00:57.679Z,61.80
2023-04-13T03:03:28.678Z,62.20
2023-04-13T03:05:59.723Z,61.60
2023-04-13T03:08:30.804Z,61.00
2023-04-13T03:11:01.993Z,60.00
2023-04-13T03:13:33.000Z,59.90
2023-04-13T03:16:05.338Z,59.80
2023-04-13T03:18:36.425Z,60.30
2023-04-13T03:21:08.178Z,60.60
2023-04-13T03:23:39.126Z,59.20
2023-04-13T03:26:10.317Z,59.20
2023-04-13T03:28:41.311Z,58.80
2023-04-13T03:31:12.646Z,58.60
2023-04-13T03:33:43.684Z,59.00
2023-04-13T03:36:14.783Z,58.80
2023-04-13T03:38:45.772Z,57.90
2023-04-13T03:41:16.824Z,58.30
2023-04-13T03:43:47.790Z,57.30
2023-04-13T03:46:18.900Z,57.60
2023-04-13T03:48:49.957Z,57.30
2023-04-13T03:51:21.092Z,57.00
2023-04-13T03:53:52.157Z,56.80
2023-04-13T03:56:23.373Z,56.80
2023-04-13T03:58:54.472Z,57.20
2023-04-13T04:01:26.429Z,55.80
2023-04-13T04:03:58.721Z,55.90
2023-04-13T04:06:29.876Z,55.90
2023-04-13T04:09:00.875Z,56.00
2023-04-13T04:11:31.845Z,55.80
2023-04-13T04:14:02.870Z,55.30
2023-04-13T04:16:33.831Z,55.10
2023-04-13T04:19:04.899Z,54.60
2023-04-13T04:21:35.876Z,54.40
2023-04-13T04:24:11.685Z,54.60
2023-04-13T04:26:42.652Z,55.00
2023-04-13T04:29:14.902Z,55.30
2023-04-13T04:31:45.979Z,55.00
2023-04-13T04:34:17.809Z,54.80
2023-04-13T04:36:50.172Z,55.30
2023-04-13T04:39:24.824Z,55.60
2023-04-13T04:41:58.691Z,55.80
2023-04-13T04:44:31.053Z,55.30
2023-04-13T04:47:03.605Z,54.60
2023-04-13T04:49:35.287Z,55.70
2023-04-13T04:52:06.383Z,55.20
2023-04-13T04:54:37.358Z,55.10
2023-04-13T04:57:09.696Z,54.40
2023-04-13T04:59:41.897Z,53.40
2023-04-13T05:02:13.005Z,54.00
2023-04-13T05:04:43.986Z,54.20
2023-04-13T05:07:16.308Z,54.30
2023-04-13T05:09:47.301Z,53.70
2023-04-13T05:12:18.984Z,54.00
2023-04-13T05:14:50.536Z,54.10
2023-04-13T05:17:21.531Z,52.80
2023-04-13T05:19:52.510Z,53.10
2023-04-13T05:22:23.875Z,53.00
2023-04-13T05:24:54.859Z,53.20
2023-04-13T05:27:25.840Z,52.70
2023-04-13T05:29:59.428Z,52.70
2023-04-13T05:32:30.425Z,52.40
2023-04-13T05:35:01.516Z,51.90
2023-04-13T05:37:33.138Z,52.10
2023-04-13T05:40:05.583Z,52.30
2023-04-13T05:42:37.282Z,51.90
2023-04-13T05:45:10.438Z,52.30
2023-04-13T05:47:41.971Z,51.70
2023-04-13T05:50:14.033Z,51.60
2023-04-13T05:52:45.045Z,50.40
2023-04-13T05:55:16.085Z,50.70
2023-04-13T05:57:47.061Z,49.30
2023-04-13T06:00:20.121Z,49.20
2023-04-13T06:02:51.808Z,48.70
2023-04-13T06:05:23.502Z,49.20
2023-04-13T06:07:54.628Z,49.30
2023-04-13T06:10:25.618Z,49.00
2023-04-13T06:12:56.618Z,48.50
2023-04-13T06:15:27.675Z,48.20
2023-04-13T06:17:58.733Z,49.00
2023-04-13T06:20:29.791Z,48.40
2023-04-13T06:23:01.326Z,48.20
2023-04-13T06:25:32.512Z,48.10
2023-04-13T06:28:05.504Z,48.90
2023-04-13T06:30:36.638Z,48.10
2023-04-13T06:33:07.698Z,49.00
2023-04-13T06:35:38.712Z,48.50
2023-04-13T06:38:11.253Z,48.20
2023-04-13T06:40:42.785Z,48.50
2023-04-13T06:43:26.372Z,48.30
2023-04-13T06:45:46.105Z,48.00
2023-04-13T06:48:17.156Z,48.10
2023-04-13T06:50:48.117Z,48.10
2023-04-13T06:53:19.098Z,48.20
2023-04-13T06:55:50.072Z,48.80
2023-04-13T06:58:21.923Z,48.40
2023-04-13T07:00:52.930Z,48.80
2023-04-13T07:03:24.162Z,48.80
2023-04-13T07:05:55.686Z,49.10
2023-04-13T07:08:27.001Z,49.80
2023-04-13T07:10:59.060Z,49.60
2023-04-13T07:13:30.066Z,49.40
2023-04-13T07:16:01.109Z,49.10
2023-04-13T07:18:32.322Z,48.80
2023-04-13T07:21:03.306Z,48.80
2023-04-13T07:23:34.899Z,48.80
2023-04-13T07:26:05.859Z,49.10
2023-04-13T07:28:36.855Z,49.00
2023-04-13T07:31:09.036Z,48.70
2023-04-13T07:33:40.042Z,48.70
2023-04-13T07:36:11.618Z,49.10
2023-04-13T07:38:42.659Z,48.10
2023-04-13T07:41:13.906Z,47.30
2023-04-13T07:43:45.218Z,47.40
2023-04-13T07:46:16.251Z,47.90
2023-04-13T07:48:47.361Z,47.10
2023-04-13T07:51:21.795Z,47.40
2023-04-13T07:53:54.364Z,47.60
2023-04-13T07:56:25.401Z,47.60
2023-04-13T07:58:56.352Z,47.10
2023-04-13T08:01:27.462Z,46.90
2023-04-13T08:03:58.658Z,46.90
2023-04-13T08:06:29.751Z,47.20
2023-04-13T08:09:00.886Z,47.40
2023-04-13T08:11:32.432Z,47.80
2023-04-13T08:14:03.441Z,47.80
2023-04-13T08:16:35.671Z,47.50
2023-04-13T08:19:14.582Z,47.40
2023-04-13T08:21:45.523Z,47.50
2023-04-13T08:24:16.513Z,47.60
2023-04-13T08:26:47.505Z,47.90
2023-04-13T08:29:18.683Z,47.90
2023-04-13T08:31:50.006Z,46.90
2023-04-13T08:34:21.455Z,47.30
2023-04-13T08:36:52.507Z,47.90
2023-04-13T08:39:24.064Z,47.00
2023-04-13T08:41:55.129Z,46.80
2023-04-13T08:44:27.152Z,46.90
2023-04-13T08:46:58.556Z,46.90
2023-04-13T08:49:30.392Z,47.70
2023-04-13T08:52:05.062Z,47.60
2023-04-13T08:54:36.536Z,47.70
2023-04-13T08:57:08.841Z,48.10
2023-04-13T08:59:42.910Z,47.90
2023-04-13T09:02:15.570Z,47.80
2023-04-13T09:04:48.823Z,47.90
2023-04-13T09:07:33.793Z,48.00
2023-04-13T09:10:18.476Z,48.30
2023-04-13T09:12:53.097Z,48.50
2023-04-13T09:15:25.375Z,48.50
2023-04-13T09:17:56.960Z,48.60
2023-04-13T09:20:27.952Z,49.00
2023-04-13T09:22:58.911Z,49.30
2023-04-13T09:25:31.269Z,49.20
2023-04-13T09:28:12.349Z,49.00
2023-04-13T09:30:43.394Z,49.70
2023-04-13T09:33:15.465Z,49.80
2023-04-13T09:35:46.621Z,50.30
2023-04-13T09:38:18.769Z,50.50
2023-04-13T09:41:17.264Z,50.30
2023-04-13T09:43:48.255Z,50.50
2023-04-13T09:46:23.891Z,50.90
2023-04-13T09:49:07.944Z,51.00
2023-04-13T09:51:43.696Z,51.20
2023-04-13T09:54:14.737Z,51.40
2023-04-13T09:56:48.264Z,51.50
2023-04-13T09:59:20.501Z,51.50
2023-04-13T10:01:53.588Z,51.60
2023-04-13T10:04:25.484Z,52.10
2023-04-13T10:06:56.712Z,52.00
2023-04-13T10:09:28.352Z,51.80
2023-04-13T10:12:01.298Z,51.90
2023-04-13T10:14:34.654Z,51.90
2023-04-13T10:17:26.141Z,51.70
2023-04-13T10:19:59.501Z,51.90
2023-04-13T10:22:34.956Z,52.00
2023-04-13T10:25:09.560Z,51.70
2023-04-13T10:27:40.707Z,51.90
2023-04-13T10:30:20.514Z,51.80
2023-04-13T10:32:55.234Z,51.90
2023-04-13T10:35:27.222Z,52.30
2023-04-13T10:38:04.386Z,52.30
2023-04-13T10:40:49.250Z,52.50
2023-04-13T10:43:33.883Z,52.60
2023-04-13T10:46:15.011Z,52.60
2023-04-13T10:48:47.463Z,52.70
2023-04-13T10:51:19.021Z,52.80
2023-04-13T10:53:50.302Z,52.90
2023-04-13T10:56:21.477Z,53.80
2023-04-13T10:58:55.802Z,53.30
2023-04-13T11:01:27.603Z,53.50
2023-04-13T11:04:05.226Z,53.70
2023-04-13T11:06:32.911Z,53.50
2023-04-13T11:09:07.084Z,53.70
2023-04-13T11:11:40.821Z,54.10
2023-04-13T11:14:13.273Z,54.00
2023-04-13T11:16:48.076Z,54.10
2023-04-13T11:19:20.099Z,54.20
2023-04-13T11:22:13.255Z,54.30
2023-04-13T11:24:43.900Z,54.90
2023-04-13T11:27:26.521Z,54.50
2023-04-13T11:30:06.759Z,54.60
2023-04-13T11:32:39.412Z,54.50
2023-04-13T11:35:11.430Z,54.50
2023-04-13T11:37:46.933Z,54.60
2023-04-13T11:40:24.269Z,54.60
2023-04-13T11:42:59.843Z,54.60
2023-04-13T11:45:32.432Z,54.70
2023-04-13T11:48:05.617Z,54.60
2023-04-13T11:50:36.718Z,54.60
2023-04-13T11:53:10.611Z,54.70
2023-04-13T11:55:52.755Z,54.60
2023-04-13T11:58:20.143Z,54.80
2023-04-13T12:00:51.799Z,54.80
2023-04-13T12:03:38.304Z,54.70
2023-04-13T12:05:58.283Z,54.70
2023-04-13T12:08:31.889Z,54.70
2023-04-13T12:11:36.768Z,54.80
2023-04-13T12:13:52.463Z,55.00
2023-04-13T12:17:00.338Z,55.00
2023-04-13T12:19:10.682Z,55.10
2023-04-13T12:21:44.782Z,55.20
2023-04-13T12:24:16.287Z,55.50
2023-04-13T12:29:19.875Z,56.60
2023-04-13T12:31:50.971Z,56.70
2023-04-13T12:34:23.399Z,56.70
2023-04-13T12:36:54.411Z,56.80
2023-04-13T12:39:25.374Z,57.30
2023-04-13T12:41:56.328Z,57.80
2023-04-13T12:44:27.330Z,57.90
2023-04-13T12:46:58.321Z,58.00
2023-04-13T12:49:29.242Z,58.70
2023-04-13T12:52:00.205Z,59.10
2023-04-13T12:54:31.901Z,59.80
2023-04-13T12:57:02.885Z,59.70
2023-04-13T12:59:33.899Z,59.80
2023-04-13T13:02:04.924Z,59.70
2023-04-13T13:04:36.010Z,60.60
2023-04-13T13:07:06.969Z,60.60
2023-04-13T13:09:38.457Z,60.90
2023-04-13T13:12:10.609Z,60.90
2023-04-13T13:14:41.579Z,61.00
2023-04-13T13:17:12.686Z,61.50
2023-04-13T13:19:43.723Z,61.60
2023-04-13T13:22:14.679Z,61.30
2023-04-13T13:24:45.667Z,61.60
2023-04-13T13:27:53.985Z,61.80
2023-04-13T13:29:49.462Z,62.10
2023-04-13T13:32:20.531Z,62.50
2023-04-13T13:34:51.776Z,62.20
2023-04-13T13:37:22.728Z,62.00
2023-04-13T13:39:53.709Z,62.40
2023-04-13T13:42:24.801Z,62.30
2023-04-13T13:44:55.792Z,62.70
2023-04-13T13:47:26.873Z,61.70
2023-04-13T13:49:57.908Z,62.30
2023-04-13T13:52:28.896Z,62.60
2023-04-13T13:54:59.875Z,63.00
2023-04-13T13:57:31.109Z,63.20
2023-04-13T14:00:02.051Z,63.20
2023-04-13T14:02:33.198Z,63.30
2023-04-13T14:05:04.208Z,63.30
2023-04-13T14:07:35.171Z,63.60
2023-04-13T14:10:06.298Z,63.20
2023-04-13T14:12:37.278Z,63.50
2023-04-13T14:15:10.331Z,63.70
2023-04-13T14:17:41.889Z,63.60
2023-04-13T14:20:16.677Z,63.70
2023-04-13T14:22:47.693Z,64.10
2023-04-13T14:25:18.768Z,64.30
2023-04-13T14:27:49.776Z,64.80
2023-04-13T14:30:21.005Z,65.20
2023-04-13T14:32:53.055Z,65.20
2023-04-13T14:35:27.107Z,65.70
2023-04-13T14:37:58.086Z,65.70
2023-04-13T14:40:29.525Z,66.00
2023-04-13T14:43:00.580Z,66.30
2023-04-13T14:45:31.564Z,66.40
2023-04-13T14:48:02.670Z,66.20
2023-04-13T14:50:35.206Z,65.50
2023-04-13T14:53:07.570Z,66.20
2023-04-13T14:55:38.605Z,66.50
2023-04-13T14:58:09.615Z,66.60
2023-04-13T15:00:41.447Z,66.70
2023-04-13T15:03:14.106Z,66.90
2023-04-13T15:05:49.680Z,67.20
2023-04-13T15:08:21.015Z,67.50
2023-04-13T15:10:51.993Z,67.80
2023-04-13T15:13:22.951Z,68.10
2023-04-13T15:15:53.938Z,68.20
2023-04-13T15:18:24.889Z,68.50
2023-04-13T15:20:56.190Z,68.60
2023-04-13T15:23:27.151Z,68.60
2023-04-13T15:25:58.237Z,69.00
2023-04-13T15:28:29.223Z,69.00
2023-04-13T15:31:00.199Z,68.80
2023-04-13T15:33:31.163Z,68.20
2023-04-13T15:36:02.154Z,69.20
2023-04-13T15:38:33.133Z,68.60
2023-04-13T15:41:04.327Z,69.00
2023-04-13T15:43:35.370Z,69.40
2023-04-13T15:46:06.591Z,69.00
2023-04-13T15:48:37.623Z,69.80
2023-04-13T15:51:09.110Z,70.00
2023-04-13T15:53:40.094Z,69.80
2023-04-13T15:56:11.569Z,70.20
2023-04-13T15:58:42.589Z,70.10
2023-04-13T16:01:14.791Z,70.50
2023-04-13T16:03:47.158Z,70.80
2023-04-13T16:06:18.418Z,70.50
2023-04-13T16:08:49.379Z,71.10
2023-04-13T16:11:21.740Z,71.10
2023-04-13T16:13:54.075Z,71.50
2023-04-13T16:16:25.420Z,71.60
2023-04-13T16:18:56.539Z,71.40
2023-04-13T16:21:27.496Z,71.70
2023-04-13T16:23:58.714Z,71.70
2023-04-13T16:26:29.745Z,70.70
2023-04-13T16:29:00.902Z,71.50
2023-04-13T16:31:32.204Z,71.60
2023-04-13T16:34:11.721Z,71.90
2023-04-13T16:36:35.518Z,72.10
2023-04-13T16:39:13.042Z,72.10
2023-04-13T16:41:44.130Z,72.60
2023-04-13T16:44:15.224Z,72.30
2023-04-13T16:46:46.247Z,72.50
2023-04-13T16:49:17.479Z,72.30
2023-04-13T16:51:49.586Z,72.60
2023-04-13T16:54:22.298Z,72.50
2023-04-13T16:56:53.901Z,72.60
2023-04-13T16:59:24.842Z,72.50
2023-04-13T17:01:55.887Z,73.00
2023-04-13T17:04:26.952Z,72.10
2023-04-13T17:07:05.547Z,72.60
2023-04-13T17:09:36.589Z,72.40
2023-04-13T17:12:07.612Z,73.10
2023-04-13T17:14:38.584Z,73.10
2023-04-13T17:17:09.672Z,73.30
2023-04-13T17:19:40.625Z,73.60
2023-04-13T17:22:11.604Z,73.80
2023-04-13T17:24:42.581Z,73.80
2023-04-13T17:27:13.545Z,73.60
2023-04-13T17:29:44.534Z,73.70
2023-04-13T17:32:15.574Z,73.60
2023-04-13T17:34:46.589Z,73.60
2023-04-13T17:37:18.070Z,73.20
2023-04-13T17:39:50.647Z,74.70
2023-04-13T17:42:22.983Z,74.90
2023-04-13T17:44:56.272Z,74.90
2023-04-13T17:47:27.304Z,75.20
2023-04-13T17:49:58.588Z,75.60
2023-04-13T17:52:33.149Z,74.80
2023-04-13T17:55:05.552Z,75.60
2023-04-13T17:57:36.703Z,75.70
2023-04-13T18:00:08.325Z,75.10
2023-04-13T18:02:40.504Z,76.00
2023-04-13T18:05:13.493Z,76.20
2023-04-13T18:07:44.773Z,76.50
2023-04-13T18:10:16.051Z,76.20
2023-04-13T18:12:47.124Z,76.40
2023-04-13T18:15:18.199Z,77.00
2023-04-13T18:17:49.271Z,75.60
2023-04-13T18:20:20.267Z,76.50
2023-04-13T18:22:51.230Z,76.70
2023-04-13T18:25:22.210Z,76.70
2023-04-13T18:27:54.105Z,76.80
2023-04-13T18:30:25.285Z,77.00
2023-04-13T18:32:56.303Z,77.20
2023-04-13T18:35:27.330Z,77.60
2023-04-13T18:37:59.180Z,77.10
2023-04-13T18:40:30.140Z,76.90
2023-04-13T18:43:02.499Z,76.70
2023-04-13T18:45:33.707Z,76.70
2023-04-13T18:48:05.189Z,77.30
2023-04-13T18:50:36.318Z,77.20
2023-04-13T18:53:07.274Z,77.50
2023-04-13T18:55:38.232Z,76.60
2023-04-13T18:58:09.239Z,77.20
2023-04-13T19:00:40.192Z,77.40
2023-04-13T19:03:11.394Z,77.40
2023-04-13T19:05:42.686Z,77.30
2023-04-13T19:08:14.464Z,77.50
2023-04-13T19:10:46.403Z,78.00
2023-04-13T19:13:18.063Z,77.90
2023-04-13T19:15:49.027Z,77.90
2023-04-13T19:18:20.032Z,77.90
2023-04-13T19:20:50.988Z,77.90
2023-04-13T19:23:22.212Z,77.40
2023-04-13T19:25:54.290Z,77.60
2023-04-13T19:28:26.135Z,77.70
2023-04-13T19:30:57.107Z,78.10
2023-04-13T19:33:28.058Z,78.30
2023-04-13T19:35:59.573Z,78.30
2023-04-13T19:38:31.240Z,78.20
2023-04-13T19:41:02.193Z,78.30
2023-04-13T19:43:33.732Z,77.90
2023-04-13T19:46:04.692Z,78.30
2023-04-13T19:48:35.694Z,78.80
2023-04-13T19:51:06.646Z,78.80
2023-04-13T19:53:38.377Z,78.30
2023-04-13T19:56:09.667Z,78.70
2023-04-13T19:58:40.628Z,79.20
2023-04-13T20:01:13.096Z,79.20
2023-04-13T20:03:45.378Z,79.40
2023-04-13T20:06:17.043Z,79.30
2023-04-13T20:08:48.869Z,79.70
2023-04-13T20:11:19.823Z,80.10
2023-04-13T20:13:50.792Z,79.70
2023-04-13T20:16:22.600Z,80.60
2023-04-13T20:18:53.659Z,80.40
2023-04-13T20:21:24.697Z,81.00
2023-04-13T20:23:55.654Z,81.10
2023-04-13T20:26:28.302Z,81.20
2023-04-13T20:29:00.101Z,80.80
2023-04-13T20:31:32.636Z,80.80
2023-04-13T20:34:04.493Z,80.60
2023-04-13T20:36:35.430Z,80.50
2023-04-13T20:39:07.070Z,81.40
2023-04-13T20:41:38.344Z,81.10
2023-04-13T20:44:10.966Z,81.70
2023-04-13T20:46:42.939Z,81.70
2023-04-13T20:49:14.648Z,82.00
2023-04-13T20:51:45.608Z,81.70
2023-04-13T20:54:17.097Z,81.80
2023-04-13T20:56:49.468Z,81.30
2023-04-13T20:59:20.462Z,81.70
2023-04-13T21:01:52.288Z,81.90
2023-04-13T21:04:23.348Z,82.00
2023-04-13T21:06:55.008Z,82.20
2023-04-13T21:09:25.999Z,82.50
2023-04-13T21:11:57.962Z,82.30
2023-04-13T21:14:29.065Z,82.80
2023-04-13T21:17:00.119Z,83.10
2023-04-13T21:19:31.664Z,83.10
2023-04-13T21:22:02.611Z,83.10
2023-04-13T21:24:33.605Z,83.10
2023-04-13T21:27:04.669Z,83.00
2023-04-13T21:29:35.720Z,82.90
2023-04-13T21:32:06.745Z,82.80
2023-04-13T21:34:37.787Z,83.30
2023-04-13T21:37:08.998Z,83.20
2023-04-13T21:39:40.077Z,83.00
2023-04-13T21:42:11.030Z,83.10
2023-04-13T21:44:42.007Z,83.10
2023-04-13T21:47:12.995Z,83.00
2023-04-13T21:49:44.274Z,83.40
2023-04-13T21:52:15.233Z,83.10
2023-04-13T21:54:46.292Z,83.20
2023-04-13T21:57:17.231Z,83.10
2023-04-13T21:59:48.768Z,83.20
2023-04-13T22:02:19.887Z,83.10
2023-04-13T22:04:50.975Z,83.20
2023-04-13T22:07:31.511Z,83.20
2023-04-13T22:09:54.232Z,83.30
2023-04-13T22:12:25.200Z,83.20
2023-04-13T22:14:59.299Z,83.40
2023-04-13T22:17:30.390Z,83.00
2023-04-13T22:20:02.125Z,83.30
2023-04-13T22:22:33.554Z,83.10
2023-04-13T22:25:04.548Z,83.10
2023-04-13T22:27:35.538Z,83.00
2023-04-13T22:30:07.091Z,83.30
2023-04-13T22:32:38.619Z,83.20
2023-04-13T22:35:10.550Z,82.90
2023-04-13T22:37:41.618Z,83.20
2023-04-13T22:40:13.328Z,82.90
2023-04-13T22:42:44.321Z,82.60
2023-04-13T22:45:15.461Z,83.10
2023-04-13T22:47:46.544Z,82.90
2023-04-13T22:50:17.596Z,83.10
2023-04-13T22:52:48.915Z,82.70
2023-04-13T22:55:19.989Z,84.30
2023-04-13T22:57:50.952Z,83.50
2023-04-13T23:00:22.145Z,83.50
2023-04-13T23:02:54.664Z,83.50
2023-04-13T23:05:26.178Z,83.20
2023-04-13T23:07:57.169Z,83.30
2023-04-13T23:10:28.550Z,83.30
2023-04-13T23:13:00.009Z,83.10
2023-04-13T23:15:31.320Z,82.80
2023-04-13T23:18:04.635Z,83.00
2023-04-13T23:20:35.817Z,83.00
2023-04-13T23:23:06.775Z,82.70
2023-04-13T23:25:38.174Z,83.10
2023-04-13T23:28:09.148Z,83.40
2023-04-13T23:30:40.148Z,83.50
2023-04-13T23:33:11.128Z,83.80
2023-04-13T23:35:42.267Z,83.60
2023-04-13T23:38:13.265Z,83.20
2023-04-13T23:40:44.434Z,83.50
2023-04-13T23:43:15.402Z,83.50
2023-04-13T23:45:46.456Z,83.50
2023-04-13T23:48:17.456Z,83.20
2023-04-13T23:50:48.632Z,83.40
2023-04-13T23:53:22.612Z,83.30
2023-04-13T23:55:53.739Z,83.20
2023-04-13T23:58:43.739Z,83.20
